Boston, Massachusetts
Traffic Map
Current Weather Conditions
Boston, Massachusetts
Broken Clouds
Broken Clouds
52°
Feels Like: 52°
Wind Chill: 52° Ceiling: 11000
Heat Index: 52° Visibility: 10mi
Dew Point: 38° Wind: 12mph
Humidity: 59% Direction: 320° (NW)
Pressure: 29.56in Gusts: 0mph
Raw Report DataKBOS 210754Z 32010KT 10SM BKN110 11/03 A2956 RMK AO2 SLP010 T01110033
Traffic Incident Summary
Active as of:
Severity:
Category:
InformationThere was an issue retrieving the traffic information for this location. Please try a different location or try again shortly.
Advertisements